createdAt,value
2019-06-08T01:42:04.001Z,20.7
2019-06-08T01:44:39.083Z,20.7
2019-06-08T01:47:14.132Z,20.7
2019-06-08T01:49:49.139Z,20.7
2019-06-08T01:52:23.080Z,20.7
2019-06-08T01:54:58.305Z,20.7
2019-06-08T01:57:34.378Z,20.7
2019-06-08T02:00:41.566Z,20.7
2019-06-08T02:02:50.996Z,20.7
2019-06-08T02:05:26.210Z,20.7
2019-06-08T02:07:59.671Z,20.7
2019-06-08T02:10:33.397Z,20.7
2019-06-08T02:13:09.444Z,20.7
2019-06-08T02:15:41.763Z,20
2019-06-08T02:18:14.296Z,20
2019-06-08T02:20:46.833Z,20
2019-06-08T02:23:19.189Z,20
2019-06-08T02:25:51.410Z,20
2019-06-08T02:28:23.907Z,20
2019-06-08T02:30:56.375Z,20
2019-06-08T02:33:36.850Z,20
2019-06-08T02:36:09.636Z,20
2019-06-08T02:38:42.227Z,20
2019-06-08T02:41:14.623Z,20
2019-06-08T02:43:47.457Z,20
2019-06-08T02:46:19.744Z,20
2019-06-08T02:49:05.512Z,20
2019-06-08T02:51:38.330Z,20
2019-06-08T02:54:10.849Z,20
2019-06-08T02:56:43.102Z,20
2019-06-08T02:59:15.970Z,20
2019-06-08T03:01:48.436Z,20
2019-06-08T03:04:20.875Z,20
2019-06-08T03:06:53.853Z,20
2019-06-08T03:09:26.335Z,20
2019-06-08T03:11:58.681Z,20
2019-06-08T03:14:37.485Z,20
2019-06-08T03:17:12.024Z,20
2019-06-08T03:19:44.551Z,20
2019-06-08T03:22:16.909Z,20
2019-06-08T03:24:49.701Z,20
2019-06-08T03:27:21.981Z,20
2019-06-08T03:29:55.051Z,20
2019-06-08T03:31:26.342Z,20
2019-06-08T03:34:00.143Z,20
2019-06-08T03:36:57.632Z,20
2019-06-08T03:39:16.649Z,20
2019-06-08T03:41:50.603Z,20
2019-06-08T03:44:24.858Z,20
2019-06-08T03:46:59.601Z,20
2019-06-08T03:49:57.913Z,20
2019-06-08T03:52:16.498Z,20
2019-06-08T03:54:49.117Z,20
2019-06-08T03:57:21.826Z,20
2019-06-08T03:59:54.317Z,20
2019-06-08T04:02:27.045Z,20
2019-06-08T04:04:59.566Z,20
2019-06-08T04:07:32.218Z,20
2019-06-08T04:10:04.586Z,20
2019-06-08T04:12:41.931Z,20
2019-06-08T04:15:16.394Z,20
2019-06-08T04:17:50.862Z,20
2019-06-08T04:20:23.271Z,20
2019-06-08T04:22:55.819Z,18.6
2019-06-08T04:25:28.237Z,18.6
2019-06-08T04:28:00.828Z,18.6
2019-06-08T04:30:33.178Z,18.6
2019-06-08T04:33:06.005Z,18.6
2019-06-08T04:35:44.677Z,18.6
2019-06-08T04:38:19.310Z,18.6
2019-06-08T04:40:51.685Z,18.6
2019-06-08T04:43:24.147Z,18.6
2019-06-08T04:45:56.576Z,18.6
2019-06-08T04:48:29.515Z,18.6
2019-06-08T04:51:01.909Z,18.6
2019-06-08T04:53:34.280Z,18.6
2019-06-08T04:56:06.585Z,18.6
2019-06-08T04:58:48.901Z,18.6
2019-06-08T05:01:19.848Z,18.6
2019-06-08T05:03:52.641Z,18.6
2019-06-08T05:06:24.854Z,18.6
2019-06-08T05:08:57.355Z,18.7
2019-06-08T05:11:29.722Z,18.7
2019-06-08T05:14:02.125Z,18.7
2019-06-08T05:16:34.509Z,18.7
2019-06-08T05:19:07.336Z,18.8
2019-06-08T05:21:43.152Z,18.8
2019-06-08T05:24:16.037Z,18.9
2019-06-08T05:26:49.959Z,18.9
2019-06-08T05:29:22.467Z,19
2019-06-08T05:31:26.778Z,19
2019-06-08T05:34:00.587Z,19
2019-06-08T05:36:34.426Z,19
2019-06-08T05:39:08.445Z,19
2019-06-08T05:41:43.596Z,19
2019-06-08T05:44:17.515Z,19
2019-06-08T05:46:51.439Z,19
2019-06-08T05:49:25.216Z,19
2019-06-08T05:51:59.260Z,19
2019-06-08T05:54:33.150Z,19
2019-06-08T05:57:07.430Z,19.7
2019-06-08T05:59:43.959Z,19.7
2019-06-08T06:02:18.079Z,19.7
2019-06-08T06:04:54.436Z,19.7
2019-06-08T06:07:28.484Z,20
2019-06-08T06:10:02.448Z,20
2019-06-08T06:12:36.381Z,20.1
2019-06-08T06:15:10.227Z,20.1
2019-06-08T06:17:51.191Z,20.1
2019-06-08T06:20:25.355Z,20.1
2019-06-08T06:22:59.289Z,20.2
2019-06-08T06:25:33.178Z,20.2
2019-06-08T06:28:07.230Z,20.3
2019-06-08T06:30:42.099Z,20.3
2019-06-08T06:33:18.503Z,20.4
2019-06-08T06:35:52.756Z,20.4
2019-06-08T06:38:25.346Z,20.5
2019-06-08T06:40:57.622Z,20.5
2019-06-08T06:43:30.033Z,20.5
2019-06-08T06:46:02.321Z,20.5
2019-06-08T06:48:34.649Z,20.6
2019-06-08T06:51:06.971Z,20.7
2019-06-08T06:53:39.587Z,20.7
2019-06-08T06:56:11.901Z,20.8
2019-06-08T06:58:45.554Z,20.8
2019-06-08T07:01:17.763Z,20.9
2019-06-08T07:03:50.655Z,20.9
2019-06-08T07:06:24.286Z,21.1
2019-06-08T07:08:57.055Z,21.1
2019-06-08T07:11:29.569Z,21.1
2019-06-08T07:14:01.946Z,21.1
2019-06-08T07:16:34.365Z,21.2
2019-06-08T07:19:06.806Z,21.2
2019-06-08T07:21:42.684Z,21.3
2019-06-08T07:24:15.466Z,21.3
2019-06-08T07:26:48.812Z,21.4
2019-06-08T07:29:22.795Z,21.4
2019-06-08T07:31:26.221Z,21.6
2019-06-08T07:34:00.624Z,21.6
2019-06-08T07:36:34.405Z,21.9
2019-06-08T07:39:08.272Z,21.9
2019-06-08T07:41:42.225Z,22.2
2019-06-08T07:44:15.950Z,22.2
2019-06-08T07:46:51.532Z,22.5
2019-06-08T07:49:25.383Z,22.5
2019-06-08T07:52:11.390Z,22.5
2019-06-08T07:54:41.565Z,22.5
2019-06-08T07:57:15.602Z,22.5
2019-06-08T07:59:56.052Z,22.5
2019-06-08T08:02:30.535Z,22.9
2019-06-08T08:05:04.417Z,22.9
2019-06-08T08:07:38.411Z,23.4
2019-06-08T08:10:12.438Z,23.4
2019-06-08T08:12:46.559Z,23.6
2019-06-08T08:15:20.569Z,23.6
2019-06-08T08:17:57.553Z,23.9
2019-06-08T08:20:31.563Z,23.9
2019-06-08T08:23:09.617Z,24
2019-06-08T08:25:43.418Z,24
2019-06-08T08:28:18.274Z,24.1
2019-06-08T08:30:59.625Z,24.3
2019-06-08T08:33:34.796Z,24.3
2019-06-08T08:36:08.568Z,24.3
2019-06-08T08:38:42.537Z,24.3
2019-06-08T08:41:18.818Z,24.1
2019-06-08T08:43:56.530Z,24.1
2019-06-08T08:46:32.049Z,23.5
2019-06-08T08:49:13.432Z,23.5
2019-06-08T08:51:47.553Z,23.4
2019-06-08T08:54:20.244Z,23.4
2019-06-08T08:57:05.338Z,23.4
2019-06-08T08:59:33.680Z,23.4
2019-06-08T09:02:11.977Z,23.6
2019-06-08T09:04:44.567Z,23.6
2019-06-08T09:07:18.943Z,23.7
2019-06-08T09:09:56.081Z,23.7
2019-06-08T09:12:32.234Z,23.7
2019-06-08T09:15:05.058Z,23.7
2019-06-08T09:17:40.640Z,24.2
2019-06-08T09:20:19.775Z,24.2
2019-06-08T09:23:21.511Z,24.4
2019-06-08T09:25:33.265Z,24.4
2019-06-08T09:28:08.389Z,24.1
2019-06-08T09:31:31.440Z,24.1
2019-06-08T09:34:19.164Z,24.1
2019-06-08T09:36:48.833Z,24.5
2019-06-08T09:39:22.710Z,24.5
2019-06-08T09:42:05.412Z,24.7
2019-06-08T09:44:38.991Z,24.7
2019-06-08T09:47:13.595Z,25.2
2019-06-08T09:49:48.634Z,25.2
2019-06-08T09:52:22.599Z,25.2
2019-06-08T09:55:09.086Z,25.2
2019-06-08T09:57:39.682Z,25.2
2019-06-08T10:00:29.348Z,25.2
2019-06-08T10:03:09.149Z,25.2
2019-06-08T10:05:39.483Z,25.2
2019-06-08T10:08:13.587Z,25.2
2019-06-08T10:10:49.065Z,25.2
2019-06-08T10:13:23.096Z,25.2
2019-06-08T10:16:10.740Z,25.2
2019-06-08T10:18:39.989Z,25.2
2019-06-08T10:21:13.903Z,25.2
2019-06-08T10:23:49.019Z,25.2
2019-06-08T10:26:23.088Z,25.2
2019-06-08T10:29:10.239Z,25.2
2019-06-08T10:31:44.408Z,25.1
2019-06-08T10:34:18.593Z,25.1
2019-06-08T10:36:52.573Z,25.3
2019-06-08T10:39:28.857Z,25.3
2019-06-08T10:42:11.664Z,25.6
2019-06-08T10:44:45.375Z,25.6
2019-06-08T10:47:19.309Z,25.9
2019-06-08T10:49:53.403Z,25.9
2019-06-08T10:52:28.747Z,26
2019-06-08T10:55:12.455Z,26
2019-06-08T10:57:47.879Z,26
2019-06-08T11:00:25.129Z,26
2019-06-08T11:03:11.562Z,25.9
2019-06-08T11:05:44.850Z,25.9
2019-06-08T11:08:19.427Z,26
2019-06-08T11:10:53.371Z,26
2019-06-08T11:13:28.914Z,26.1
2019-06-08T11:16:13.573Z,26.1
2019-06-08T11:18:45.463Z,26
2019-06-08T11:21:19.613Z,26
2019-06-08T11:24:25.390Z,26
2019-06-08T11:26:40.856Z,26.2
2019-06-08T11:29:14.787Z,26.2
2019-06-08T11:31:32.648Z,26.2
2019-06-08T11:34:10.393Z,26.2
2019-06-08T11:36:44.458Z,26.2
2019-06-08T11:39:19.300Z,26.2
2019-06-08T11:41:53.236Z,26.2
2019-06-08T11:44:28.274Z,26.2
2019-06-08T11:47:06.470Z,26
2019-06-08T11:49:44.846Z,26
2019-06-08T11:52:19.296Z,26
2019-06-08T11:54:53.235Z,26
2019-06-08T11:57:28.891Z,26
2019-06-08T12:00:31.086Z,26
2019-06-08T12:02:45.255Z,26.2
2019-06-08T12:05:19.326Z,26.7
2019-06-08T12:07:53.526Z,26.7
2019-06-08T12:10:29.053Z,26.7
2019-06-08T12:13:03.106Z,26.7
2019-06-08T12:15:39.112Z,26.7
2019-06-08T12:18:14.542Z,26.7
2019-06-08T12:20:49.437Z,26.7
2019-06-08T12:23:23.606Z,26.7
2019-06-08T12:25:57.528Z,26.7
2019-06-08T12:28:31.313Z,26.7
2019-06-08T12:31:05.300Z,26.7
2019-06-08T12:33:42.978Z,26.7
2019-06-08T12:36:21.338Z,26.7
2019-06-08T12:38:55.121Z,26.7
2019-06-08T12:41:31.974Z,26.7
2019-06-08T12:44:10.260Z,26.7
2019-06-08T12:46:49.147Z,26.7
2019-06-08T12:49:22.972Z,26.7
2019-06-08T12:51:58.871Z,26.7
2019-06-08T12:54:32.939Z,26.7
2019-06-08T12:57:19.419Z,26.7
2019-06-08T12:59:49.276Z,26.7
2019-06-08T13:02:24.878Z,26.7
2019-06-08T13:04:58.890Z,26.7
2019-06-08T13:07:32.806Z,26.7
2019-06-08T13:10:06.747Z,26.7
2019-06-08T13:12:41.495Z,27.8
2019-06-08T13:15:17.114Z,27.9
2019-06-08T13:17:55.468Z,27.9
2019-06-08T13:20:29.317Z,27.9
2019-06-08T13:23:03.364Z,27.9
2019-06-08T13:25:44.336Z,27.9
2019-06-08T13:28:28.510Z,27.9
2019-06-08T13:31:29.368Z,27.9
2019-06-08T13:34:03.376Z,27.9
2019-06-08T13:36:42.760Z,27.7
2019-06-08T13:39:23.495Z,27.7
2019-06-08T13:41:57.357Z,28.1
2019-06-08T13:44:31.467Z,28.1
2019-06-08T13:47:07.582Z,28.1
2019-06-08T13:49:48.546Z,28.1
2019-06-08T13:52:28.128Z,28.1
2019-06-08T13:55:00.558Z,28.1
2019-06-08T13:57:32.997Z,28.1
2019-06-08T14:00:07.866Z,28.1
2019-06-08T14:02:40.704Z,28.1
2019-06-08T14:05:22.823Z,28.1
2019-06-08T14:07:54.166Z,28.1
2019-06-08T14:10:28.750Z,28.3
2019-06-08T14:13:01.204Z,28.2
2019-06-08T14:15:34.219Z,28.2
2019-06-08T14:18:09.457Z,28.2
2019-06-08T14:20:42.195Z,28.2
2019-06-08T14:23:14.582Z,28.4
2019-06-08T14:26:00.456Z,28.6
2019-06-08T14:28:30.815Z,28.6
2019-06-08T14:31:03.319Z,28.6
2019-06-08T14:33:37.641Z,28.4
2019-06-08T14:36:10.717Z,28.3
2019-06-08T14:38:42.879Z,28.3
2019-06-08T14:41:17.872Z,28.6
2019-06-08T14:43:52.592Z,28.6
2019-06-08T14:46:30.607Z,28.6
2019-06-08T14:49:02.943Z,28.6
2019-06-08T14:51:35.476Z,28.6
2019-06-08T14:54:10.859Z,28.6
2019-06-08T14:56:43.285Z,28.6
2019-06-08T14:59:21.898Z,28.6
2019-06-08T15:01:56.333Z,28.8
2019-06-08T15:04:40.198Z,28.8
2019-06-08T15:07:10.125Z,28.8
2019-06-08T15:09:42.498Z,28.8
2019-06-08T15:12:14.934Z,28.8
2019-06-08T15:14:48.340Z,28.8
2019-06-08T15:17:23.504Z,28.8
2019-06-08T15:19:58.567Z,28.8
2019-06-08T15:22:32.487Z,28.9
2019-06-08T15:25:04.780Z,28.8
2019-06-08T15:27:39.517Z,28.8
2019-06-08T15:31:32.902Z,28.9
2019-06-08T15:34:05.292Z,28.9
2019-06-08T15:36:38.773Z,28.9
2019-06-08T15:39:10.997Z,29
2019-06-08T15:41:43.382Z,29
2019-06-08T15:44:26.016Z,29
2019-06-08T15:46:59.024Z,29
2019-06-08T15:49:34.384Z,29
2019-06-08T15:52:06.646Z,29.2
2019-06-08T15:54:41.482Z,29.2
2019-06-08T15:57:13.795Z,29.2
2019-06-08T15:59:46.281Z,29
2019-06-08T16:02:22.976Z,29
2019-06-08T16:04:55.497Z,28.9
2019-06-08T16:07:35.832Z,28.9
2019-06-08T16:10:08.545Z,28.9
2019-06-08T16:12:40.831Z,28.9
2019-06-08T16:15:13.385Z,28.9
2019-06-08T16:17:45.902Z,28.9
2019-06-08T16:20:18.459Z,28.7
2019-06-08T16:22:50.726Z,28.6
2019-06-08T16:25:23.122Z,28.6
2019-06-08T16:27:55.547Z,28.6
2019-06-08T16:30:29.317Z,28.4
2019-06-08T16:33:01.768Z,28.3
2019-06-08T16:35:35.886Z,28.3
2019-06-08T16:38:08.252Z,28.1
2019-06-08T16:40:41.031Z,28.1
2019-06-08T16:43:13.317Z,27.9
2019-06-08T16:45:45.975Z,27.9
2019-06-08T16:48:18.950Z,27.8
2019-06-08T16:50:51.202Z,27.8
2019-06-08T16:53:23.493Z,27.8
2019-06-08T16:55:55.943Z,27.8
2019-06-08T16:58:28.382Z,27.9
2019-06-08T17:01:00.948Z,27.9
2019-06-08T17:03:35.170Z,27.9
2019-06-08T17:06:07.805Z,27.9
2019-06-08T17:08:42.629Z,27.9
2019-06-08T17:11:15.069Z,27.9
2019-06-08T17:13:47.655Z,27.8
2019-06-08T17:16:20.201Z,27.8
2019-06-08T17:18:56.753Z,27.8
2019-06-08T17:21:31.907Z,27.7
2019-06-08T17:24:04.807Z,27.7
2019-06-08T17:26:40.509Z,27.7
2019-06-08T17:29:13.125Z,27.7
2019-06-08T17:31:26.116Z,27.7
2019-06-08T17:33:59.438Z,27.7
2019-06-08T17:36:32.530Z,27.7
2019-06-08T17:39:04.873Z,27.7
2019-06-08T17:41:38.467Z,27.6
2019-06-08T17:44:11.261Z,27.6
2019-06-08T17:46:43.705Z,27.6
2019-06-08T17:49:17.607Z,27.6
2019-06-08T17:51:50.036Z,27.5
2019-06-08T17:54:22.594Z,27.5
2019-06-08T17:56:54.835Z,27.5
2019-06-08T17:59:27.328Z,27.5
2019-06-08T18:01:59.707Z,27.5
2019-06-08T18:04:33.778Z,27.5
2019-06-08T18:07:07.960Z,27.5
2019-06-08T18:09:45.348Z,27.4
2019-06-08T18:12:19.296Z,27.4
2019-06-08T18:14:51.561Z,27.4
2019-06-08T18:17:23.848Z,27.4
2019-06-08T18:19:58.808Z,27.3
2019-06-08T18:22:31.225Z,27.3
2019-06-08T18:25:03.644Z,27.3
2019-06-08T18:28:06.329Z,27.3
2019-06-08T18:30:19.594Z,27.3
2019-06-08T18:32:51.843Z,27.3
2019-06-08T18:35:24.305Z,27.2
2019-06-08T18:37:58.384Z,27.2
2019-06-08T18:40:30.875Z,27.2
2019-06-08T18:43:03.187Z,27.2
2019-06-08T18:45:45.478Z,27.2
2019-06-08T18:48:21.916Z,27
2019-06-08T18:50:57.483Z,27
2019-06-08T18:53:29.764Z,26.9
2019-06-08T18:56:02.304Z,26.9
2019-06-08T18:58:35.971Z,26.9
2019-06-08T19:01:09.316Z,26.9
2019-06-08T19:03:53.001Z,26.8
2019-06-08T19:06:23.080Z,26.8
2019-06-08T19:08:58.155Z,26.7
2019-06-08T19:11:30.567Z,26.6
2019-06-08T19:14:03.878Z,26.5
2019-06-08T19:16:54.597Z,26.5
2019-06-08T19:19:18.406Z,26.3
2019-06-08T19:21:51.546Z,26.3
2019-06-08T19:24:23.772Z,26.3
2019-06-08T19:26:58.432Z,26.3
2019-06-08T19:29:30.688Z,26.1
2019-06-08T19:31:28.213Z,26
2019-06-08T19:34:02.196Z,26
2019-06-08T19:36:41.314Z,26
2019-06-08T19:39:18.393Z,25.9
2019-06-08T19:41:52.352Z,25.8
2019-06-08T19:44:28.165Z,25.8
2019-06-08T19:47:02.139Z,25.8
2019-06-08T19:49:41.140Z,25.7
2019-06-08T19:52:18.906Z,25.7
2019-06-08T19:54:54.899Z,25.6
2019-06-08T19:57:28.808Z,25.6
2019-06-08T20:00:01.521Z,25.5
2019-06-08T20:02:33.858Z,25.5
2019-06-08T20:05:11.183Z,25.5
2019-06-08T20:07:43.477Z,25.5
2019-06-08T20:10:18.673Z,25.5
2019-06-08T20:12:51.522Z,25
2019-06-08T20:15:24.364Z,25
2019-06-08T20:17:58.081Z,24.8
2019-06-08T20:20:30.565Z,24.8
2019-06-08T20:23:03.000Z,24.5
2019-06-08T20:25:38.516Z,24.5
2019-06-08T20:28:10.841Z,24.4
2019-06-08T20:30:44.435Z,24.4
2019-06-08T20:33:16.814Z,24.2
2019-06-08T20:35:52.356Z,24.2
2019-06-08T20:38:44.583Z,24
2019-06-08T20:41:08.120Z,23.8
2019-06-08T20:43:46.846Z,23.8
2019-06-08T20:46:21.497Z,23.6
2019-06-08T20:48:53.807Z,23.6
2019-06-08T20:51:28.478Z,23.4
2019-06-08T20:54:00.759Z,23.4
2019-06-08T20:56:33.274Z,23.3
2019-06-08T20:59:07.983Z,23.3
2019-06-08T21:02:03.369Z,23.1
2019-06-08T21:04:27.119Z,23.1
2019-06-08T21:07:01.839Z,23
2019-06-08T21:09:37.649Z,23
2019-06-08T21:12:13.968Z,22.9
2019-06-08T21:14:55.591Z,22.9
2019-06-08T21:17:28.140Z,22.9
2019-06-08T21:20:00.670Z,22.9
2019-06-08T21:22:32.942Z,22.8
2019-06-08T21:25:05.377Z,22.8
2019-06-08T21:27:40.861Z,22.7
2019-06-08T21:31:25.581Z,22.6
2019-06-08T21:34:01.495Z,22.6
2019-06-08T21:36:38.069Z,22.6
2019-06-08T21:39:12.086Z,22.6
2019-06-08T21:42:03.140Z,22.6
2019-06-08T21:44:28.522Z,22.6
2019-06-08T21:47:02.630Z,22.6
2019-06-08T21:49:38.990Z,22.6
2019-06-08T21:52:12.847Z,22.6
2019-06-08T21:54:48.041Z,22.6
2019-06-08T21:57:24.360Z,22.6
2019-06-08T22:00:43.454Z,22.6
2019-06-08T22:02:40.861Z,22.6
2019-06-08T22:05:14.734Z,22.6
2019-06-08T22:07:49.946Z,22.6
2019-06-08T22:10:23.869Z,22.5
2019-06-08T22:14:03.607Z,22.5
2019-06-08T22:15:40.584Z,22.5
2019-06-08T22:18:14.204Z,22.5
2019-06-08T22:20:48.326Z,22.4
2019-06-08T22:23:21.956Z,22.4
2019-06-08T22:26:01.424Z,22.4
2019-06-08T22:28:37.558Z,22.4
2019-06-08T22:31:11.338Z,22.3
2019-06-08T22:33:45.106Z,22.3
2019-06-08T22:36:19.281Z,22.3
2019-06-08T22:38:56.712Z,22.3
2019-06-08T22:41:34.370Z,22.1
2019-06-08T22:44:08.753Z,22.1
2019-06-08T22:46:42.785Z,22.1
2019-06-08T22:49:18.970Z,22
2019-06-08T22:52:00.893Z,22
2019-06-08T22:54:35.034Z,22
2019-06-08T22:57:08.703Z,22
2019-06-08T22:59:42.418Z,21.9
2019-06-08T23:02:18.681Z,21.9
2019-06-08T23:04:51.055Z,21.9
2019-06-08T23:07:33.185Z,21.9
2019-06-08T23:10:09.193Z,21.9
2019-06-08T23:12:41.457Z,21.9
2019-06-08T23:15:13.738Z,21.9
2019-06-08T23:17:48.527Z,21.9
2019-06-08T23:20:20.989Z,21.7
2019-06-08T23:22:53.241Z,21.7
2019-06-08T23:25:28.424Z,21.7
2019-06-08T23:28:00.719Z,21.7
2019-06-08T23:31:29.600Z,21.6
2019-06-08T23:34:11.779Z,21.5
2019-06-08T23:37:10.486Z,21.5
2019-06-08T23:39:29.076Z,21.4
2019-06-08T23:42:04.271Z,21.3
2019-06-08T23:44:39.488Z,21.3
2019-06-08T23:47:13.557Z,21.3
2019-06-08T23:49:47.985Z,21.2
2019-06-08T23:52:22.046Z,21.1
2019-06-08T23:55:04.113Z,21.1
2019-06-08T23:57:38.821Z,21.1
